sensor_id;sensor_type;location;lat;lon;timestamp;temperature;humidity
5930;DHT22;2990;48.746;9.236;2023-06-04T00:01:31;16.40;90.50
5930;DHT22;2990;48.746;9.236;2023-06-04T00:03:57;16.40;90.80
5930;DHT22;2990;48.746;9.236;2023-06-04T00:06:22;16.40;90.50
5930;DHT22;2990;48.746;9.236;2023-06-04T00:08:48;16.30;91.20
5930;DHT22;2990;48.746;9.236;2023-06-04T00:11:13;16.30;90.50
5930;DHT22;2990;48.746;9.236;2023-06-04T00:13:39;16.30;92.60
5930;DHT22;2990;48.746;9.236;2023-06-04T00:16:04;16.30;90.00
5930;DHT22;2990;48.746;9.236;2023-06-04T00:18:30;16.30;92.20
5930;DHT22;2990;48.746;9.236;2023-06-04T00:20:56;16.20;92.90
5930;DHT22;2990;48.746;9.236;2023-06-04T00:23:21;16.20;93.10
5930;DHT22;2990;48.746;9.236;2023-06-04T00:25:47;16.20;94.00
5930;DHT22;2990;48.746;9.236;2023-06-04T00:28:12;16.10;96.70
5930;DHT22;2990;48.746;9.236;2023-06-04T00:30:38;16.10;96.60
5930;DHT22;2990;48.746;9.236;2023-06-04T00:33:04;16.00;97.70
5930;DHT22;2990;48.746;9.236;2023-06-04T00:35:29;16.00;97.30
5930;DHT22;2990;48.746;9.236;2023-06-04T00:37:55;16.00;95.50
5930;DHT22;2990;48.746;9.236;2023-06-04T00:40:20;15.90;97.60
5930;DHT22;2990;48.746;9.236;2023-06-04T00:42:46;15.90;95.90
5930;DHT22;2990;48.746;9.236;2023-06-04T00:45:11;15.90;97.70
5930;DHT22;2990;48.746;9.236;2023-06-04T00:47:38;15.80;97.90
5930;DHT22;2990;48.746;9.236;2023-06-04T00:50:05;15.80;98.60
5930;DHT22;2990;48.746;9.236;2023-06-04T00:52:32;15.70;97.70
5930;DHT22;2990;48.746;9.236;2023-06-04T00:54:58;15.70;97.60
5930;DHT22;2990;48.746;9.236;2023-06-04T00:57:24;15.70;98.50
5930;DHT22;2990;48.746;9.236;2023-06-04T00:59:49;15.60;99.10
5930;DHT22;2990;48.746;9.236;2023-06-04T01:02:16;15.60;98.40
5930;DHT22;2990;48.746;9.236;2023-06-04T01:05:06;15.60;98.70
5930;DHT22;2990;48.746;9.236;2023-06-04T01:07:37;15.70;99.90
5930;DHT22;2990;48.746;9.236;2023-06-04T01:10:06;15.50;99.90
5930;DHT22;2990;48.746;9.236;2023-06-04T01:12:32;15.50;99.90
5930;DHT22;2990;48.746;9.236;2023-06-04T01:14:57;15.50;99.90
5930;DHT22;2990;48.746;9.236;2023-06-04T01:17:25;15.40;99.90
5930;DHT22;2990;48.746;9.236;2023-06-04T01:20:20;15.30;99.90
5930;DHT22;2990;48.746;9.236;2023-06-04T01:25:43;15.30;99.90
5930;DHT22;2990;48.746;9.236;2023-06-04T01:28:12;15.30;99.90
5930;DHT22;2990;48.746;9.236;2023-06-04T01:30:42;15.20;99.90
5930;DHT22;2990;48.746;9.236;2023-06-04T01:33:10;15.20;99.90
5930;DHT22;2990;48.746;9.236;2023-06-04T01:35:36;15.10;99.90
5930;DHT22;2990;48.746;9.236;2023-06-04T01:38:02;15.10;99.90
5930;DHT22;2990;48.746;9.236;2023-06-04T01:40:28;15.10;99.90
5930;DHT22;2990;48.746;9.236;2023-06-04T01:42:54;15.10;99.90
5930;DHT22;2990;48.746;9.236;2023-06-04T01:45:22;15.10;99.90
5930;DHT22;2990;48.746;9.236;2023-06-04T01:47:47;15.00;99.90
5930;DHT22;2990;48.746;9.236;2023-06-04T01:50:13;15.10;99.90
5930;DHT22;2990;48.746;9.236;2023-06-04T01:52:40;15.00;99.90
5930;DHT22;2990;48.746;9.236;2023-06-04T01:55:07;14.90;99.90
5930;DHT22;2990;48.746;9.236;2023-06-04T01:57:34;14.90;99.90
5930;DHT22;2990;48.746;9.236;2023-06-04T02:00:04;14.90;99.90
5930;DHT22;2990;48.746;9.236;2023-06-04T02:02:33;14.90;99.90
5930;DHT22;2990;48.746;9.236;2023-06-04T02:04:58;14.90;99.90
5930;DHT22;2990;48.746;9.236;2023-06-04T02:07:24;14.80;99.90
5930;DHT22;2990;48.746;9.236;2023-06-04T02:09:51;14.90;99.90
5930;DHT22;2990;48.746;9.236;2023-06-04T02:12:16;14.90;99.90
5930;DHT22;2990;48.746;9.236;2023-06-04T02:14:42;14.80;99.90
5930;DHT22;2990;48.746;9.236;2023-06-04T02:17:08;14.80;99.90
5930;DHT22;2990;48.746;9.236;2023-06-04T02:19:40;14.80;99.90
5930;DHT22;2990;48.746;9.236;2023-06-04T02:22:12;14.80;99.90
5930;DHT22;2990;48.746;9.236;2023-06-04T02:24:39;14.70;99.90
5930;DHT22;2990;48.746;9.236;2023-06-04T02:27:10;14.70;99.90
5930;DHT22;2990;48.746;9.236;2023-06-04T02:29:36;14.70;99.90
5930;DHT22;2990;48.746;9.236;2023-06-04T02:32:03;14.60;99.90
5930;DHT22;2990;48.746;9.236;2023-06-04T02:34:29;14.60;99.90
5930;DHT22;2990;48.746;9.236;2023-06-04T02:36:54;14.60;99.90
5930;DHT22;2990;48.746;9.236;2023-06-04T02:39:20;14.60;99.90
5930;DHT22;2990;48.746;9.236;2023-06-04T02:41:46;14.50;99.90
5930;DHT22;2990;48.746;9.236;2023-06-04T02:44:11;14.50;99.90
5930;DHT22;2990;48.746;9.236;2023-06-04T02:46:37;14.40;99.90
5930;DHT22;2990;48.746;9.236;2023-06-04T02:49:03;14.40;99.90
5930;DHT22;2990;48.746;9.236;2023-06-04T02:51:29;14.40;99.90
5930;DHT22;2990;48.746;9.236;2023-06-04T02:53:54;14.30;99.90
5930;DHT22;2990;48.746;9.236;2023-06-04T02:56:20;14.30;99.90
5930;DHT22;2990;48.746;9.236;2023-06-04T02:58:53;14.30;99.90
5930;DHT22;2990;48.746;9.236;2023-06-04T03:01:24;14.20;99.90
5930;DHT22;2990;48.746;9.236;2023-06-04T03:03:50;14.20;99.90
5930;DHT22;2990;48.746;9.236;2023-06-04T03:06:17;14.20;99.90
5930;DHT22;2990;48.746;9.236;2023-06-04T03:08:45;14.10;99.90
5930;DHT22;2990;48.746;9.236;2023-06-04T03:11:11;14.10;99.90
5930;DHT22;2990;48.746;9.236;2023-06-04T03:13:38;14.00;99.90
5930;DHT22;2990;48.746;9.236;2023-06-04T03:16:04;14.00;99.90
5930;DHT22;2990;48.746;9.236;2023-06-04T03:18:36;14.00;99.90
5930;DHT22;2990;48.746;9.236;2023-06-04T03:21:03;14.00;99.90
5930;DHT22;2990;48.746;9.236;2023-06-04T03:23:28;13.90;99.90
5930;DHT22;2990;48.746;9.236;2023-06-04T03:25:54;13.90;99.90
5930;DHT22;2990;48.746;9.236;2023-06-04T03:28:19;13.90;99.90
5930;DHT22;2990;48.746;9.236;2023-06-04T03:30:45;13.80;99.90
5930;DHT22;2990;48.746;9.236;2023-06-04T03:33:10;13.80;99.90
5930;DHT22;2990;48.746;9.236;2023-06-04T03:35:36;13.80;99.90
5930;DHT22;2990;48.746;9.236;2023-06-04T03:38:01;13.70;99.90
5930;DHT22;2990;48.746;9.236;2023-06-04T03:40:27;13.70;99.90
5930;DHT22;2990;48.746;9.236;2023-06-04T03:42:52;13.70;99.90
5930;DHT22;2990;48.746;9.236;2023-06-04T03:45:18;13.70;99.90
5930;DHT22;2990;48.746;9.236;2023-06-04T03:47:43;13.70;99.90
5930;DHT22;2990;48.746;9.236;2023-06-04T03:50:09;13.70;99.90
5930;DHT22;2990;48.746;9.236;2023-06-04T03:52:35;13.80;99.90
5930;DHT22;2990;48.746;9.236;2023-06-04T03:55:01;13.80;99.90
5930;DHT22;2990;48.746;9.236;2023-06-04T03:57:26;13.70;99.90
5930;DHT22;2990;48.746;9.236;2023-06-04T03:59:52;13.70;99.90
5930;DHT22;2990;48.746;9.236;2023-06-04T04:02:18;13.70;99.90
5930;DHT22;2990;48.746;9.236;2023-06-04T04:04:44;13.70;99.90
5930;DHT22;2990;48.746;9.236;2023-06-04T04:07:10;13.70;99.90
5930;DHT22;2990;48.746;9.236;2023-06-04T04:09:36;13.70;99.90
5930;DHT22;2990;48.746;9.236;2023-06-04T04:12:02;13.70;99.90
5930;DHT22;2990;48.746;9.236;2023-06-04T04:14:27;13.80;99.90
5930;DHT22;2990;48.746;9.236;2023-06-04T04:16:53;13.80;99.90
5930;DHT22;2990;48.746;9.236;2023-06-04T04:19:18;13.80;99.90
5930;DHT22;2990;48.746;9.236;2023-06-04T04:21:44;13.80;99.90
5930;DHT22;2990;48.746;9.236;2023-06-04T04:24:25;13.80;99.90
5930;DHT22;2990;48.746;9.236;2023-06-04T04:26:51;13.90;99.90
5930;DHT22;2990;48.746;9.236;2023-06-04T04:29:23;13.90;99.90
5930;DHT22;2990;48.746;9.236;2023-06-04T04:31:50;13.90;99.90
5930;DHT22;2990;48.746;9.236;2023-06-04T04:34:16;13.90;99.90
5930;DHT22;2990;48.746;9.236;2023-06-04T04:36:42;13.90;99.90
5930;DHT22;2990;48.746;9.236;2023-06-04T04:39:09;13.90;99.90
5930;DHT22;2990;48.746;9.236;2023-06-04T04:41:36;14.00;99.90
5930;DHT22;2990;48.746;9.236;2023-06-04T04:44:05;14.00;99.90
5930;DHT22;2990;48.746;9.236;2023-06-04T04:46:31;14.10;99.90
5930;DHT22;2990;48.746;9.236;2023-06-04T04:48:56;14.10;99.90
5930;DHT22;2990;48.746;9.236;2023-06-04T04:51:22;14.10;99.90
5930;DHT22;2990;48.746;9.236;2023-06-04T04:53:48;14.20;99.90
5930;DHT22;2990;48.746;9.236;2023-06-04T04:56:14;14.20;99.90
5930;DHT22;2990;48.746;9.236;2023-06-04T04:58:39;14.30;99.90
5930;DHT22;2990;48.746;9.236;2023-06-04T05:01:05;14.40;99.90
5930;DHT22;2990;48.746;9.236;2023-06-04T05:03:30;14.40;99.90
5930;DHT22;2990;48.746;9.236;2023-06-04T05:05:56;14.40;99.90
5930;DHT22;2990;48.746;9.236;2023-06-04T05:08:22;14.40;99.90
5930;DHT22;2990;48.746;9.236;2023-06-04T05:10:47;14.50;99.90
5930;DHT22;2990;48.746;9.236;2023-06-04T05:13:13;14.60;99.90
5930;DHT22;2990;48.746;9.236;2023-06-04T05:15:38;14.90;99.90
5930;DHT22;2990;48.746;9.236;2023-06-04T05:18:05;15.00;99.90
5930;DHT22;2990;48.746;9.236;2023-06-04T05:20:30;15.20;99.90
5930;DHT22;2990;48.746;9.236;2023-06-04T05:22:56;15.30;99.90
5930;DHT22;2990;48.746;9.236;2023-06-04T05:25:22;15.40;99.90
5930;DHT22;2990;48.746;9.236;2023-06-04T05:27:48;15.40;99.90
5930;DHT22;2990;48.746;9.236;2023-06-04T05:30:15;15.40;99.90
5930;DHT22;2990;48.746;9.236;2023-06-04T05:32:40;15.40;99.90
5930;DHT22;2990;48.746;9.236;2023-06-04T05:35:06;15.50;99.90
5930;DHT22;2990;48.746;9.236;2023-06-04T05:37:33;15.50;99.90
5930;DHT22;2990;48.746;9.236;2023-06-04T05:40:00;15.60;99.90
5930;DHT22;2990;48.746;9.236;2023-06-04T05:42:25;15.80;99.90
5930;DHT22;2990;48.746;9.236;2023-06-04T05:44:51;16.00;99.90
5930;DHT22;2990;48.746;9.236;2023-06-04T05:47:17;16.10;99.90
5930;DHT22;2990;48.746;9.236;2023-06-04T05:49:43;16.10;99.90
5930;DHT22;2990;48.746;9.236;2023-06-04T05:52:09;16.00;99.90
5930;DHT22;2990;48.746;9.236;2023-06-04T05:54:35;15.90;99.90
5930;DHT22;2990;48.746;9.236;2023-06-04T05:57:02;15.80;99.90
5930;DHT22;2990;48.746;9.236;2023-06-04T05:59:28;15.70;99.90
5930;DHT22;2990;48.746;9.236;2023-06-04T06:01:53;15.70;99.90
5930;DHT22;2990;48.746;9.236;2023-06-04T06:04:19;15.60;99.90
5930;DHT22;2990;48.746;9.236;2023-06-04T06:06:45;15.50;99.90
5930;DHT22;2990;48.746;9.236;2023-06-04T06:09:14;15.50;98.80
5930;DHT22;2990;48.746;9.236;2023-06-04T06:11:41;15.60;99.90
5930;DHT22;2990;48.746;9.236;2023-06-04T06:14:06;15.80;99.90
5930;DHT22;2990;48.746;9.236;2023-06-04T06:16:32;16.10;99.90
5930;DHT22;2990;48.746;9.236;2023-06-04T06:19:01;16.30;99.90
5930;DHT22;2990;48.746;9.236;2023-06-04T06:21:26;16.50;99.90
5930;DHT22;2990;48.746;9.236;2023-06-04T06:23:53;16.70;99.90
5930;DHT22;2990;48.746;9.236;2023-06-04T06:26:18;16.90;97.70
5930;DHT22;2990;48.746;9.236;2023-06-04T06:28:44;17.00;99.90
5930;DHT22;2990;48.746;9.236;2023-06-04T06:31:10;17.00;97.00
5930;DHT22;2990;48.746;9.236;2023-06-04T06:33:35;17.10;99.90
5930;DHT22;2990;48.746;9.236;2023-06-04T06:36:12;17.10;94.20
5930;DHT22;2990;48.746;9.236;2023-06-04T06:38:38;17.10;96.80
5930;DHT22;2990;48.746;9.236;2023-06-04T06:41:03;17.20;98.60
5930;DHT22;2990;48.746;9.236;2023-06-04T06:43:29;17.20;96.00
5930;DHT22;2990;48.746;9.236;2023-06-04T06:45:54;17.00;97.50
5930;DHT22;2990;48.746;9.236;2023-06-04T06:48:20;17.00;94.20
5930;DHT22;2990;48.746;9.236;2023-06-04T06:50:55;17.10;97.50
5930;DHT22;2990;48.746;9.236;2023-06-04T06:53:20;17.10;93.00
5930;DHT22;2990;48.746;9.236;2023-06-04T06:55:46;16.90;95.90
5930;DHT22;2990;48.746;9.236;2023-06-04T06:58:12;16.80;94.60
5930;DHT22;2990;48.746;9.236;2023-06-04T07:00:37;16.70;99.90
5930;DHT22;2990;48.746;9.236;2023-06-04T07:03:03;16.70;99.10
5930;DHT22;2990;48.746;9.236;2023-06-04T07:05:29;16.80;87.40
5930;DHT22;2990;48.746;9.236;2023-06-04T07:07:55;16.90;97.80
5930;DHT22;2990;48.746;9.236;2023-06-04T07:10:22;17.00;93.40
5930;DHT22;2990;48.746;9.236;2023-06-04T07:12:48;17.00;86.30
5930;DHT22;2990;48.746;9.236;2023-06-04T07:15:13;17.00;82.50
5930;DHT22;2990;48.746;9.236;2023-06-04T07:17:39;17.00;86.30
5930;DHT22;2990;48.746;9.236;2023-06-04T07:20:05;17.10;90.10
5930;DHT22;2990;48.746;9.236;2023-06-04T07:22:35;17.30;85.90
5930;DHT22;2990;48.746;9.236;2023-06-04T07:25:00;17.50;85.60
5930;DHT22;2990;48.746;9.236;2023-06-04T07:27:26;17.80;84.10
5930;DHT22;2990;48.746;9.236;2023-06-04T07:29:52;18.10;70.00
5930;DHT22;2990;48.746;9.236;2023-06-04T07:32:18;18.20;76.90
5930;DHT22;2990;48.746;9.236;2023-06-04T07:34:43;18.40;79.60
5930;DHT22;2990;48.746;9.236;2023-06-04T07:37:09;18.60;82.50
5930;DHT22;2990;48.746;9.236;2023-06-04T07:39:35;18.50;85.00
5930;DHT22;2990;48.746;9.236;2023-06-04T07:42:01;18.80;66.50
5930;DHT22;2990;48.746;9.236;2023-06-04T07:44:26;18.90;92.40
5930;DHT22;2990;48.746;9.236;2023-06-04T07:46:52;19.00;65.00
5930;DHT22;2990;48.746;9.236;2023-06-04T07:49:20;19.10;62.50
5930;DHT22;2990;48.746;9.236;2023-06-04T07:51:46;19.20;69.60
5930;DHT22;2990;48.746;9.236;2023-06-04T07:54:11;19.30;58.90
5930;DHT22;2990;48.746;9.236;2023-06-04T07:56:38;19.40;59.50
5930;DHT22;2990;48.746;9.236;2023-06-04T07:59:04;19.50;44.90
5930;DHT22;2990;48.746;9.236;2023-06-04T08:01:29;19.40;55.50
5930;DHT22;2990;48.746;9.236;2023-06-04T08:03:55;19.50;46.00
5930;DHT22;2990;48.746;9.236;2023-06-04T08:06:21;19.80;55.20
5930;DHT22;2990;48.746;9.236;2023-06-04T08:08:48;20.00;43.10
5930;DHT22;2990;48.746;9.236;2023-06-04T08:11:15;20.00;47.80
5930;DHT22;2990;48.746;9.236;2023-06-04T08:13:41;19.90;39.70
5930;DHT22;2990;48.746;9.236;2023-06-04T08:16:07;19.60;39.70
5930;DHT22;2990;48.746;9.236;2023-06-04T08:18:38;19.70;30.40
5930;DHT22;2990;48.746;9.236;2023-06-04T08:21:04;19.80;27.40
5930;DHT22;2990;48.746;9.236;2023-06-04T08:23:29;19.90;21.40
5930;DHT22;2990;48.746;9.236;2023-06-04T08:25:55;20.20;1.00
5930;DHT22;2990;48.746;9.236;2023-06-04T08:28:20;20.60;1.00
5930;DHT22;2990;48.746;9.236;2023-06-04T08:30:46;20.80;1.40
5930;DHT22;2990;48.746;9.236;2023-06-04T08:33:12;21.10;1.00
5930;DHT22;2990;48.746;9.236;2023-06-04T08:35:37;21.10;1.00
5930;DHT22;2990;48.746;9.236;2023-06-04T08:38:03;21.10;1.00
5930;DHT22;2990;48.746;9.236;2023-06-04T08:40:29;21.30;1.00
5930;DHT22;2990;48.746;9.236;2023-06-04T08:42:56;21.50;1.00
5930;DHT22;2990;48.746;9.236;2023-06-04T08:45:25;21.50;1.00
5930;DHT22;2990;48.746;9.236;2023-06-04T08:47:52;21.60;1.00
5930;DHT22;2990;48.746;9.236;2023-06-04T08:50:20;21.80;1.00
5930;DHT22;2990;48.746;9.236;2023-06-04T08:52:46;21.60;1.00
5930;DHT22;2990;48.746;9.236;2023-06-04T08:55:13;21.80;1.00
5930;DHT22;2990;48.746;9.236;2023-06-04T08:57:39;22.00;1.00
5930;DHT22;2990;48.746;9.236;2023-06-04T09:00:06;22.00;1.00
5930;DHT22;2990;48.746;9.236;2023-06-04T09:02:35;21.80;1.00
5930;DHT22;2990;48.746;9.236;2023-06-04T09:05:04;22.00;1.00
5930;DHT22;2990;48.746;9.236;2023-06-04T09:07:30;22.20;1.00
5930;DHT22;2990;48.746;9.236;2023-06-04T09:09:57;22.20;1.00
5930;DHT22;2990;48.746;9.236;2023-06-04T09:12:24;22.10;1.00
5930;DHT22;2990;48.746;9.236;2023-06-04T09:14:50;22.30;1.00
5930;DHT22;2990;48.746;9.236;2023-06-04T09:17:22;22.40;1.00
5930;DHT22;2990;48.746;9.236;2023-06-04T09:19:48;22.40;1.00
5930;DHT22;2990;48.746;9.236;2023-06-04T09:22:13;22.50;1.00
5930;DHT22;2990;48.746;9.236;2023-06-04T09:24:41;22.70;1.00
5930;DHT22;2990;48.746;9.236;2023-06-04T09:27:14;22.60;1.00
5930;DHT22;2990;48.746;9.236;2023-06-04T09:29:49;22.50;1.00
5930;DHT22;2990;48.746;9.236;2023-06-04T09:32:20;22.60;1.00
5930;DHT22;2990;48.746;9.236;2023-06-04T09:34:46;22.60;1.00
5930;DHT22;2990;48.746;9.236;2023-06-04T09:37:14;22.80;1.00
5930;DHT22;2990;48.746;9.236;2023-06-04T09:39:44;22.80;1.00
5930;DHT22;2990;48.746;9.236;2023-06-04T09:42:17;22.90;1.00
5930;DHT22;2990;48.746;9.236;2023-06-04T09:44:43;23.00;1.00
5930;DHT22;2990;48.746;9.236;2023-06-04T09:47:12;23.20;1.00
5930;DHT22;2990;48.746;9.236;2023-06-04T09:49:44;23.30;1.00
5930;DHT22;2990;48.746;9.236;2023-06-04T09:52:11;23.20;1.00
5930;DHT22;2990;48.746;9.236;2023-06-04T09:54:38;23.30;1.00
5930;DHT22;2990;48.746;9.236;2023-06-04T09:57:15;23.30;1.00
5930;DHT22;2990;48.746;9.236;2023-06-04T09:59:47;23.50;1.00
5930;DHT22;2990;48.746;9.236;2023-06-04T10:02:19;23.50;1.00
5930;DHT22;2990;48.746;9.236;2023-06-04T10:04:52;23.50;1.00
5930;DHT22;2990;48.746;9.236;2023-06-04T10:07:20;23.50;1.00
5930;DHT22;2990;48.746;9.236;2023-06-04T10:09:47;23.70;1.00
5930;DHT22;2990;48.746;9.236;2023-06-04T10:12:14;23.60;1.00
5930;DHT22;2990;48.746;9.236;2023-06-04T10:14:53;23.70;1.00
5930;DHT22;2990;48.746;9.236;2023-06-04T10:17:22;23.60;1.00
5930;DHT22;2990;48.746;9.236;2023-06-04T10:19:49;23.80;1.00
5930;DHT22;2990;48.746;9.236;2023-06-04T10:22:20;23.80;1.00
5930;DHT22;2990;48.746;9.236;2023-06-04T10:24:46;23.70;1.00
5930;DHT22;2990;48.746;9.236;2023-06-04T10:27:12;23.70;1.00
5930;DHT22;2990;48.746;9.236;2023-06-04T10:29:39;23.50;1.00
5930;DHT22;2990;48.746;9.236;2023-06-04T10:32:05;23.80;1.00
5930;DHT22;2990;48.746;9.236;2023-06-04T10:34:31;23.90;1.00
5930;DHT22;2990;48.746;9.236;2023-06-04T10:36:57;24.00;1.00
5930;DHT22;2990;48.746;9.236;2023-06-04T10:39:31;23.90;1.00
5930;DHT22;2990;48.746;9.236;2023-06-04T10:42:05;23.90;1.00
5930;DHT22;2990;48.746;9.236;2023-06-04T10:44:31;24.10;1.00
5930;DHT22;2990;48.746;9.236;2023-06-04T10:46:58;24.20;1.00
5930;DHT22;2990;48.746;9.236;2023-06-04T10:49:27;24.40;1.00
5930;DHT22;2990;48.746;9.236;2023-06-04T10:51:53;24.60;1.00
5930;DHT22;2990;48.746;9.236;2023-06-04T10:54:25;24.50;1.00
5930;DHT22;2990;48.746;9.236;2023-06-04T10:56:52;24.60;1.00
5930;DHT22;2990;48.746;9.236;2023-06-04T10:59:19;24.60;1.00
5930;DHT22;2990;48.746;9.236;2023-06-04T11:01:45;24.50;1.00
5930;DHT22;2990;48.746;9.236;2023-06-04T11:04:26;24.50;1.00
5930;DHT22;2990;48.746;9.236;2023-06-04T11:07:04;24.10;1.00
5930;DHT22;2990;48.746;9.236;2023-06-04T11:09:37;24.30;1.00
5930;DHT22;2990;48.746;9.236;2023-06-04T11:12:06;24.50;1.00
5930;DHT22;2990;48.746;9.236;2023-06-04T11:14:32;24.70;1.00
5930;DHT22;2990;48.746;9.236;2023-06-04T11:17:09;24.40;1.00
5930;DHT22;2990;48.746;9.236;2023-06-04T11:19:36;24.50;1.00
5930;DHT22;2990;48.746;9.236;2023-06-04T11:22:03;25.00;1.00
5930;DHT22;2990;48.746;9.236;2023-06-04T11:24:29;24.90;1.00
5930;DHT22;2990;48.746;9.236;2023-06-04T11:26:59;25.20;1.00
5930;DHT22;2990;48.746;9.236;2023-06-04T11:29:28;25.20;1.00
5930;DHT22;2990;48.746;9.236;2023-06-04T11:31:54;25.10;1.00
5930;DHT22;2990;48.746;9.236;2023-06-04T11:34:30;25.40;1.00
5930;DHT22;2990;48.746;9.236;2023-06-04T11:37:08;25.50;1.00
5930;DHT22;2990;48.746;9.236;2023-06-04T11:39:37;25.20;1.00
5930;DHT22;2990;48.746;9.236;2023-06-04T11:42:05;24.70;1.00
5930;DHT22;2990;48.746;9.236;2023-06-04T11:44:33;24.60;1.00
5930;DHT22;2990;48.746;9.236;2023-06-04T11:46:59;24.90;1.00
5930;DHT22;2990;48.746;9.236;2023-06-04T11:49:25;25.00;1.00
5930;DHT22;2990;48.746;9.236;2023-06-04T11:51:52;25.10;1.00
5930;DHT22;2990;48.746;9.236;2023-06-04T11:54:20;25.20;1.00
5930;DHT22;2990;48.746;9.236;2023-06-04T11:56:49;25.30;1.00
5930;DHT22;2990;48.746;9.236;2023-06-04T11:59:16;25.40;1.00
5930;DHT22;2990;48.746;9.236;2023-06-04T12:01:43;25.60;1.00
5930;DHT22;2990;48.746;9.236;2023-06-04T12:04:16;25.50;1.00
5930;DHT22;2990;48.746;9.236;2023-06-04T12:06:55;25.50;1.00
5930;DHT22;2990;48.746;9.236;2023-06-04T12:09:32;25.60;1.00
5930;DHT22;2990;48.746;9.236;2023-06-04T12:12:05;25.30;1.00
5930;DHT22;2990;48.746;9.236;2023-06-04T12:14:31;25.40;1.00
5930;DHT22;2990;48.746;9.236;2023-06-04T12:16:58;25.60;1.00
5930;DHT22;2990;48.746;9.236;2023-06-04T12:19:25;25.90;1.00
5930;DHT22;2990;48.746;9.236;2023-06-04T12:22:05;26.00;1.00
5930;DHT22;2990;48.746;9.236;2023-06-04T12:24:46;26.20;1.00
5930;DHT22;2990;48.746;9.236;2023-06-04T12:27:11;26.20;1.00
5930;DHT22;2990;48.746;9.236;2023-06-04T12:29:37;26.20;1.00
5930;DHT22;2990;48.746;9.236;2023-06-04T12:32:06;26.00;1.00
5930;DHT22;2990;48.746;9.236;2023-06-04T12:34:37;25.30;1.00
5930;DHT22;2990;48.746;9.236;2023-06-04T12:37:03;25.00;1.00
5930;DHT22;2990;48.746;9.236;2023-06-04T12:39:34;25.00;1.00
5930;DHT22;2990;48.746;9.236;2023-06-04T12:42:02;25.30;1.00
5930;DHT22;2990;48.746;9.236;2023-06-04T12:44:28;25.60;1.00
5930;DHT22;2990;48.746;9.236;2023-06-04T12:46:54;25.60;1.00
5930;DHT22;2990;48.746;9.236;2023-06-04T12:49:19;25.70;1.00
5930;DHT22;2990;48.746;9.236;2023-06-04T12:51:47;25.70;1.00
5930;DHT22;2990;48.746;9.236;2023-06-04T12:54:13;25.50;1.00
5930;DHT22;2990;48.746;9.236;2023-06-04T12:56:40;25.70;1.00
5930;DHT22;2990;48.746;9.236;2023-06-04T12:59:06;25.90;1.00
5930;DHT22;2990;48.746;9.236;2023-06-04T13:01:32;26.00;1.00
5930;DHT22;2990;48.746;9.236;2023-06-04T13:03:57;25.60;1.00
5930;DHT22;2990;48.746;9.236;2023-06-04T13:06:23;25.60;1.00
5930;DHT22;2990;48.746;9.236;2023-06-04T13:08:49;25.80;1.00
5930;DHT22;2990;48.746;9.236;2023-06-04T13:11:15;25.90;1.00
5930;DHT22;2990;48.746;9.236;2023-06-04T13:13:40;25.80;1.00
5930;DHT22;2990;48.746;9.236;2023-06-04T13:16:07;25.60;1.00
5930;DHT22;2990;48.746;9.236;2023-06-04T13:18:33;25.70;1.00
5930;DHT22;2990;48.746;9.236;2023-06-04T13:20:58;25.70;1.00
5930;DHT22;2990;48.746;9.236;2023-06-04T13:23:24;25.80;1.00
5930;DHT22;2990;48.746;9.236;2023-06-04T13:25:50;26.00;1.00
5930;DHT22;2990;48.746;9.236;2023-06-04T13:28:15;26.00;1.00
5930;DHT22;2990;48.746;9.236;2023-06-04T13:30:43;25.80;1.00
5930;DHT22;2990;48.746;9.236;2023-06-04T13:33:08;25.80;1.00
5930;DHT22;2990;48.746;9.236;2023-06-04T13:35:34;26.00;1.00
5930;DHT22;2990;48.746;9.236;2023-06-04T13:38:00;25.80;1.00
5930;DHT22;2990;48.746;9.236;2023-06-04T13:40:25;25.90;1.00
5930;DHT22;2990;48.746;9.236;2023-06-04T13:42:51;25.90;1.00
5930;DHT22;2990;48.746;9.236;2023-06-04T13:45:17;25.70;1.00
5930;DHT22;2990;48.746;9.236;2023-06-04T13:47:46;25.20;1.00
5930;DHT22;2990;48.746;9.236;2023-06-04T13:50:12;25.50;1.00
5930;DHT22;2990;48.746;9.236;2023-06-04T13:52:37;25.60;1.00
5930;DHT22;2990;48.746;9.236;2023-06-04T13:55:03;25.60;1.00
5930;DHT22;2990;48.746;9.236;2023-06-04T13:57:29;25.70;1.00
5930;DHT22;2990;48.746;9.236;2023-06-04T13:59:54;26.00;1.00
5930;DHT22;2990;48.746;9.236;2023-06-04T14:02:20;26.10;1.00
5930;DHT22;2990;48.746;9.236;2023-06-04T14:04:46;26.10;1.00
5930;DHT22;2990;48.746;9.236;2023-06-04T14:07:12;26.00;1.00
5930;DHT22;2990;48.746;9.236;2023-06-04T14:09:37;26.00;1.00
5930;DHT22;2990;48.746;9.236;2023-06-04T14:12:03;26.10;1.00
5930;DHT22;2990;48.746;9.236;2023-06-04T14:14:29;26.20;1.00
5930;DHT22;2990;48.746;9.236;2023-06-04T14:17:04;26.30;1.00
5930;DHT22;2990;48.746;9.236;2023-06-04T14:19:32;26.00;1.00
5930;DHT22;2990;48.746;9.236;2023-06-04T14:21:58;25.70;1.00
5930;DHT22;2990;48.746;9.236;2023-06-04T14:24:23;25.70;1.00
5930;DHT22;2990;48.746;9.236;2023-06-04T14:26:50;25.70;1.00
5930;DHT22;2990;48.746;9.236;2023-06-04T14:29:16;26.00;1.00
5930;DHT22;2990;48.746;9.236;2023-06-04T14:37:46;25.60;1.00
5930;DHT22;2990;48.746;9.236;2023-06-04T14:40:14;25.50;1.00
5930;DHT22;2990;48.746;9.236;2023-06-04T14:42:39;25.40;1.00
5930;DHT22;2990;48.746;9.236;2023-06-04T14:45:05;25.50;1.00
5930;DHT22;2990;48.746;9.236;2023-06-04T14:47:34;25.70;1.00
5930;DHT22;2990;48.746;9.236;2023-06-04T14:50:00;25.80;1.00
5930;DHT22;2990;48.746;9.236;2023-06-04T14:52:26;25.70;1.00
5930;DHT22;2990;48.746;9.236;2023-06-04T14:54:58;25.50;1.00
5930;DHT22;2990;48.746;9.236;2023-06-04T14:57:24;25.40;1.00
5930;DHT22;2990;48.746;9.236;2023-06-04T14:59:50;25.40;1.00
5930;DHT22;2990;48.746;9.236;2023-06-04T15:02:21;25.40;1.00
5930;DHT22;2990;48.746;9.236;2023-06-04T15:04:49;25.50;1.00
5930;DHT22;2990;48.746;9.236;2023-06-04T15:07:15;25.50;1.00
5930;DHT22;2990;48.746;9.236;2023-06-04T15:09:40;25.60;1.00
5930;DHT22;2990;48.746;9.236;2023-06-04T15:12:06;25.60;1.00
5930;DHT22;2990;48.746;9.236;2023-06-04T15:14:31;25.70;1.00
5930;DHT22;2990;48.746;9.236;2023-06-04T15:16:57;25.80;1.00
5930;DHT22;2990;48.746;9.236;2023-06-04T15:19:25;25.70;1.00
5930;DHT22;2990;48.746;9.236;2023-06-04T15:21:51;25.70;1.00
5930;DHT22;2990;48.746;9.236;2023-06-04T15:24:17;25.50;1.00
5930;DHT22;2990;48.746;9.236;2023-06-04T15:26:42;25.40;1.00
5930;DHT22;2990;48.746;9.236;2023-06-04T15:29:08;25.20;1.00
5930;DHT22;2990;48.746;9.236;2023-06-04T15:31:34;25.10;1.00
5930;DHT22;2990;48.746;9.236;2023-06-04T15:34:05;25.50;1.00
5930;DHT22;2990;48.746;9.236;2023-06-04T15:36:32;26.50;1.00
5930;DHT22;2990;48.746;9.236;2023-06-04T15:38:57;26.70;1.00
5930;DHT22;2990;48.746;9.236;2023-06-04T15:41:33;26.60;1.00
5930;DHT22;2990;48.746;9.236;2023-06-04T15:43:59;26.20;1.00
5930;DHT22;2990;48.746;9.236;2023-06-04T15:46:28;25.90;1.00
5930;DHT22;2990;48.746;9.236;2023-06-04T15:48:53;25.90;1.00
5930;DHT22;2990;48.746;9.236;2023-06-04T15:51:19;26.10;1.00
5930;DHT22;2990;48.746;9.236;2023-06-04T15:53:45;26.20;1.00
5930;DHT22;2990;48.746;9.236;2023-06-04T15:56:10;25.80;1.00
5930;DHT22;2990;48.746;9.236;2023-06-04T15:58:38;26.20;1.00
5930;DHT22;2990;48.746;9.236;2023-06-04T16:01:04;26.40;1.00
5930;DHT22;2990;48.746;9.236;2023-06-04T16:03:29;26.30;1.00
5930;DHT22;2990;48.746;9.236;2023-06-04T16:05:55;26.30;1.00
5930;DHT22;2990;48.746;9.236;2023-06-04T16:08:21;26.10;1.00
5930;DHT22;2990;48.746;9.236;2023-06-04T16:10:47;25.70;1.00
5930;DHT22;2990;48.746;9.236;2023-06-04T16:13:12;25.60;1.00
5930;DHT22;2990;48.746;9.236;2023-06-04T16:15:38;25.40;1.00
5930;DHT22;2990;48.746;9.236;2023-06-04T16:18:03;25.40;1.00